createdAt,value
2019-03-03T00:01:30.724Z,68.01
2019-03-03T00:03:38.420Z,68.27
2019-03-03T00:05:46.130Z,68.25
2019-03-03T00:07:53.992Z,68.44
2019-03-03T00:10:01.775Z,68.05
2019-03-03T00:12:09.659Z,68.54
2019-03-03T00:14:17.175Z,68.70
2019-03-03T00:16:24.929Z,68.41
2019-03-03T00:18:32.618Z,68.51
2019-03-03T00:20:40.423Z,68.61
2019-03-03T00:22:48.238Z,69.27
2019-03-03T00:24:56.042Z,68.42
2019-03-03T00:27:03.702Z,69.29
2019-03-03T00:29:11.444Z,68.62
2019-03-03T00:31:31.509Z,69.91
2019-03-03T00:33:39.294Z,69.67
2019-03-03T00:35:47.045Z,70.74
2019-03-03T00:38:05.785Z,70.29
2019-03-03T00:40:26.703Z,70.33
2019-03-03T00:43:05.014Z,70.35
2019-03-03T00:45:30.672Z,69.19
2019-03-03T00:48:04.290Z,70.85
2019-03-03T00:50:21.405Z,70.80
2019-03-03T00:52:45.583Z,70.92
2019-03-03T00:55:08.645Z,71.20
2019-03-03T00:57:34.016Z,72.18
2019-03-03T01:00:18.665Z,72.86
2019-03-03T01:02:35.296Z,73.07
2019-03-03T01:04:59.995Z,73.01
2019-03-03T01:07:29.661Z,72.68
2019-03-03T01:09:56.163Z,73.21
2019-03-03T01:12:14.090Z,73.73
2019-03-03T01:14:46.566Z,72.83
2019-03-03T01:17:16.000Z,73.18
2019-03-03T01:19:30.252Z,73.49
2019-03-03T01:21:55.461Z,74.52
2019-03-03T01:24:17.802Z,74.39
2019-03-03T01:26:25.370Z,74.52
2019-03-03T01:28:33.150Z,75.19
2019-03-03T01:30:41.026Z,74.25
2019-03-03T01:32:49.211Z,74.56
2019-03-03T01:34:56.942Z,74.60
2019-03-03T01:37:04.810Z,75.51
2019-03-03T01:39:12.985Z,75.49
2019-03-03T01:41:20.659Z,75.56
2019-03-03T01:43:28.462Z,75.64
2019-03-03T01:45:36.165Z,75.34
2019-03-03T01:47:44.110Z,73.12
2019-03-03T01:49:51.832Z,75.18
2019-03-03T01:51:59.446Z,74.68
2019-03-03T01:54:07.136Z,75.43
2019-03-03T01:56:14.846Z,75.57
2019-03-03T01:58:22.697Z,75.87
2019-03-03T02:00:30.408Z,75.53
2019-03-03T02:02:39.429Z,74.86
2019-03-03T02:04:47.102Z,74.52
2019-03-03T02:06:54.712Z,75.55
2019-03-03T02:09:02.225Z,75.84
2019-03-03T02:11:10.104Z,76.09
2019-03-03T02:13:17.798Z,76.26
2019-03-03T02:15:25.693Z,75.87
2019-03-03T02:17:33.475Z,76.27
2019-03-03T02:19:41.194Z,75.93
2019-03-03T02:21:49.081Z,75.88
2019-03-03T02:23:56.822Z,76.28
2019-03-03T02:26:04.458Z,76.21
2019-03-03T02:28:12.393Z,76.63
2019-03-03T02:30:21.697Z,76.33
2019-03-03T02:32:29.629Z,75.79
2019-03-03T02:34:37.461Z,76.59
2019-03-03T02:36:45.256Z,76.84
2019-03-03T02:38:53.004Z,76.24
2019-03-03T02:41:00.622Z,76.41
2019-03-03T02:43:08.340Z,73.66
2019-03-03T02:45:16.889Z,75.25
2019-03-03T02:47:24.689Z,76.42
2019-03-03T02:49:32.573Z,76.39
2019-03-03T02:51:40.373Z,75.86
2019-03-03T02:53:48.117Z,76.79
2019-03-03T02:55:56.001Z,76.12
2019-03-03T02:58:03.612Z,76.54
2019-03-03T03:00:19.576Z,76.71
2019-03-03T03:02:45.226Z,76.74
2019-03-03T03:04:52.971Z,76.73
2019-03-03T03:07:25.705Z,76.85
2019-03-03T03:09:40.636Z,76.62
2019-03-03T03:11:59.063Z,76.23
2019-03-03T03:14:25.622Z,75.33
2019-03-03T03:16:45.604Z,76.86
2019-03-03T03:19:17.818Z,74.02
2019-03-03T03:21:38.882Z,73.57
2019-03-03T03:24:17.426Z,76.87
2019-03-03T03:26:59.246Z,76.46
2019-03-03T03:29:44.238Z,76.27
2019-03-03T03:32:13.529Z,75.75
2019-03-03T03:34:46.146Z,76.25
2019-03-03T03:37:10.918Z,76.04
2019-03-03T03:39:46.507Z,76.29
2019-03-03T03:42:09.513Z,75.93
2019-03-03T03:44:45.042Z,76.43
2019-03-03T03:47:23.872Z,76.53
2019-03-03T03:49:53.408Z,76.25
2019-03-03T03:52:18.484Z,75.64
2019-03-03T03:54:45.175Z,76.44
2019-03-03T03:57:23.487Z,76.18
2019-03-03T03:59:38.667Z,76.30
2019-03-03T04:02:08.213Z,75.72
2019-03-03T04:04:31.252Z,76.24
2019-03-03T04:06:50.682Z,76.01
2019-03-03T04:09:15.847Z,75.57
2019-03-03T04:11:45.516Z,75.99
2019-03-03T04:14:10.880Z,75.85
2019-03-03T04:16:46.573Z,75.82
2019-03-03T04:19:01.695Z,75.71
2019-03-03T04:21:28.282Z,75.99
2019-03-03T04:23:53.987Z,75.67
2019-03-03T04:26:18.626Z,75.30
2019-03-03T04:28:45.793Z,75.61
2019-03-03T04:31:02.198Z,75.53
2019-03-03T04:33:31.389Z,75.97
2019-03-03T04:35:58.779Z,75.48
2019-03-03T04:38:25.243Z,75.44
2019-03-03T04:40:48.701Z,75.15
2019-03-03T04:43:01.727Z,75.21
2019-03-03T04:45:17.231Z,75.30
2019-03-03T04:47:39.916Z,75.37
2019-03-03T04:50:12.509Z,75.39
2019-03-03T04:52:43.914Z,75.42
2019-03-03T04:55:09.241Z,74.98
2019-03-03T04:57:35.698Z,75.44
2019-03-03T05:00:05.175Z,75.37
2019-03-03T05:02:37.705Z,75.12
2019-03-03T05:05:02.438Z,74.86
2019-03-03T05:07:27.836Z,75.68
2019-03-03T05:10:06.283Z,74.69
2019-03-03T05:12:43.610Z,75.30
2019-03-03T05:14:52.312Z,75.41
2019-03-03T05:17:05.985Z,75.40
2019-03-03T05:19:32.467Z,74.96
2019-03-03T05:21:40.209Z,75.84
2019-03-03T05:23:48.120Z,75.55
2019-03-03T05:25:55.925Z,75.77
2019-03-03T05:28:03.674Z,75.19
2019-03-03T05:30:11.839Z,75.47
2019-03-03T05:32:19.388Z,75.60
2019-03-03T05:34:27.059Z,75.74
2019-03-03T05:36:34.790Z,75.95
2019-03-03T05:38:42.387Z,75.37
2019-03-03T05:40:50.008Z,75.18
2019-03-03T05:42:57.485Z,75.69
2019-03-03T05:45:05.350Z,75.55
2019-03-03T05:47:13.039Z,75.43
2019-03-03T05:49:20.812Z,75.77
2019-03-03T05:51:28.472Z,75.48
2019-03-03T05:53:36.256Z,75.06
2019-03-03T05:55:43.917Z,75.52
2019-03-03T05:57:51.574Z,75.50
2019-03-03T05:59:59.307Z,75.27
2019-03-03T06:02:07.088Z,75.53
2019-03-03T06:04:14.950Z,75.25
2019-03-03T06:06:22.628Z,75.08
2019-03-03T06:08:30.494Z,75.31
2019-03-03T06:10:38.051Z,75.46
2019-03-03T06:12:45.713Z,75.41
2019-03-03T06:14:53.451Z,75.15
2019-03-03T06:17:01.437Z,75.14
2019-03-03T06:19:08.976Z,75.26
2019-03-03T06:21:16.781Z,75.25
2019-03-03T06:23:24.556Z,75.27
2019-03-03T06:25:32.327Z,74.93
2019-03-03T06:27:39.934Z,74.95
2019-03-03T06:29:47.634Z,75.04
2019-03-03T06:31:55.570Z,74.87
2019-03-03T06:34:03.178Z,74.98
2019-03-03T06:36:10.850Z,75.04
2019-03-03T06:38:18.756Z,74.87
2019-03-03T06:40:26.484Z,74.76
2019-03-03T06:42:34.203Z,74.91
2019-03-03T06:44:41.860Z,74.92
2019-03-03T06:46:49.531Z,74.66
2019-03-03T06:48:57.310Z,75.05
2019-03-03T06:51:05.091Z,74.97
2019-03-03T06:53:12.839Z,74.85
2019-03-03T06:55:20.520Z,74.96
2019-03-03T06:57:28.200Z,74.99
2019-03-03T06:59:35.775Z,74.58
2019-03-03T07:01:43.501Z,74.70
2019-03-03T07:03:51.319Z,74.76
2019-03-03T07:05:59.032Z,74.67
2019-03-03T07:08:07.202Z,74.63
2019-03-03T07:10:16.007Z,74.65
2019-03-03T07:12:23.707Z,74.51
2019-03-03T07:14:31.421Z,73.85
2019-03-03T07:16:39.172Z,74.27
2019-03-03T07:18:46.901Z,74.12
2019-03-03T07:20:54.527Z,74.29
2019-03-03T07:23:02.448Z,74.20
2019-03-03T07:25:12.370Z,73.88
2019-03-03T07:27:20.102Z,73.31
2019-03-03T07:29:27.979Z,72.78
2019-03-03T07:31:35.822Z,72.36
2019-03-03T07:33:46.976Z,72.45
2019-03-03T07:35:54.665Z,72.67
2019-03-03T07:38:02.306Z,71.89
2019-03-03T07:40:10.212Z,72.00
2019-03-03T07:42:18.114Z,71.58
2019-03-03T07:44:25.740Z,71.49
2019-03-03T07:46:33.718Z,70.78
2019-03-03T07:48:41.422Z,70.81
2019-03-03T07:50:49.141Z,70.51
2019-03-03T07:52:56.934Z,70.34
2019-03-03T07:55:05.211Z,70.54
2019-03-03T07:57:13.140Z,70.19
2019-03-03T07:59:20.998Z,69.74
2019-03-03T08:01:28.761Z,69.68
2019-03-03T08:03:36.692Z,69.51
2019-03-03T08:05:44.684Z,68.90
2019-03-03T08:07:52.510Z,68.90
2019-03-03T08:10:00.257Z,68.16
2019-03-03T08:12:08.133Z,68.62
2019-03-03T08:14:15.909Z,68.12
2019-03-03T08:16:23.718Z,68.10
2019-03-03T08:18:31.538Z,67.64
2019-03-03T08:20:39.144Z,67.11
2019-03-03T08:22:46.944Z,67.44
2019-03-03T08:24:54.717Z,66.68
2019-03-03T08:27:02.447Z,67.60
2019-03-03T08:29:10.124Z,67.45
2019-03-03T08:31:17.746Z,67.25
2019-03-03T08:33:25.379Z,67.19
2019-03-03T08:35:33.407Z,67.23
2019-03-03T08:37:41.587Z,67.23
2019-03-03T08:39:49.359Z,67.52
2019-03-03T08:42:03.332Z,67.52
2019-03-03T08:44:15.044Z,67.72
2019-03-03T08:46:50.469Z,67.78
2019-03-03T08:49:15.583Z,67.78
2019-03-03T08:51:45.035Z,67.52
2019-03-03T08:54:02.219Z,67.39
2019-03-03T08:56:26.346Z,67.49
2019-03-03T08:59:08.860Z,66.69
2019-03-03T09:01:44.512Z,66.94
2019-03-03T09:04:09.556Z,66.77
2019-03-03T09:06:39.327Z,66.49
2019-03-03T09:09:11.981Z,66.16
2019-03-03T09:11:28.072Z,65.76
2019-03-03T09:13:48.165Z,65.77
2019-03-03T09:16:12.182Z,65.66
2019-03-03T09:18:37.391Z,65.58
2019-03-03T09:21:14.932Z,64.99
2019-03-03T09:23:40.555Z,64.99
2019-03-03T09:26:16.075Z,64.64
2019-03-03T09:28:41.107Z,64.41
2019-03-03T09:31:26.064Z,64.65
2019-03-03T09:33:52.766Z,64.14
2019-03-03T09:36:16.963Z,63.93
2019-03-03T09:38:40.869Z,62.68
2019-03-03T09:41:10.598Z,62.65
2019-03-03T09:43:36.047Z,62.22
2019-03-03T09:46:08.973Z,62.89
2019-03-03T09:48:41.712Z,62.81
2019-03-03T09:51:05.301Z,62.42
2019-03-03T09:53:31.789Z,62.55
2019-03-03T09:55:57.539Z,62.06
2019-03-03T09:58:24.502Z,62.27
2019-03-03T10:00:54.334Z,61.30
2019-03-03T10:03:15.881Z,61.10
2019-03-03T10:05:48.532Z,60.66
2019-03-03T10:08:10.654Z,60.87
2019-03-03T10:10:52.625Z,60.58
2019-03-03T10:13:22.581Z,60.51
2019-03-03T10:15:37.972Z,60.19
2019-03-03T10:18:03.244Z,60.37
2019-03-03T10:20:39.634Z,60.35
2019-03-03T10:22:58.560Z,60.45
2019-03-03T10:25:28.101Z,60.67
2019-03-03T10:27:54.635Z,61.17
2019-03-03T10:30:19.756Z,61.39
2019-03-03T10:32:46.263Z,61.61
2019-03-03T10:35:21.625Z,61.68
2019-03-03T10:37:51.355Z,61.84
2019-03-03T10:40:24.253Z,62.06
2019-03-03T10:43:02.844Z,62.05
2019-03-03T10:45:40.319Z,62.10
2019-03-03T10:48:07.002Z,62.25
2019-03-03T10:50:38.290Z,62.22
2019-03-03T10:53:11.006Z,62.69
2019-03-03T10:55:36.685Z,63.09
2019-03-03T10:58:06.496Z,63.46
2019-03-03T11:00:37.456Z,63.67
2019-03-03T11:03:07.234Z,63.68
2019-03-03T11:05:33.554Z,63.76
2019-03-03T11:08:12.461Z,64.13
2019-03-03T11:10:28.578Z,64.38
2019-03-03T11:13:05.121Z,64.59
2019-03-03T11:15:35.799Z,64.96
2019-03-03T11:18:14.523Z,65.16
2019-03-03T11:20:47.360Z,65.45
2019-03-03T11:23:19.931Z,65.48
2019-03-03T11:25:49.529Z,66.13
2019-03-03T11:28:23.387Z,67.06
2019-03-03T11:30:37.387Z,67.74
2019-03-03T11:33:21.506Z,67.98
2019-03-03T11:35:46.017Z,68.43
2019-03-03T11:38:15.372Z,68.68
2019-03-03T11:40:35.075Z,68.88
2019-03-03T11:42:54.135Z,69.33
2019-03-03T11:45:32.804Z,69.58
2019-03-03T11:48:03.826Z,69.76
2019-03-03T11:50:22.023Z,70.00
2019-03-03T11:52:57.625Z,70.10
2019-03-03T11:55:13.601Z,70.35
2019-03-03T11:57:30.911Z,70.20
2019-03-03T11:59:46.223Z,70.31
2019-03-03T12:02:12.630Z,70.43
2019-03-03T12:04:48.610Z,70.64
2019-03-03T12:07:18.153Z,70.71
2019-03-03T12:10:00.308Z,71.00
2019-03-03T12:12:18.061Z,71.31
2019-03-03T12:14:42.469Z,71.36
2019-03-03T12:17:03.152Z,71.52
2019-03-03T12:19:23.350Z,71.74
2019-03-03T12:21:55.629Z,72.30
2019-03-03T12:24:21.980Z,73.72
2019-03-03T12:26:54.768Z,73.48
2019-03-03T12:29:20.158Z,73.69
2019-03-03T12:31:46.758Z,73.50
2019-03-03T12:34:28.518Z,73.56
2019-03-03T12:37:00.934Z,73.63
2019-03-03T12:39:31.795Z,73.04
2019-03-03T12:42:03.765Z,72.47
2019-03-03T12:44:26.316Z,72.41
2019-03-03T12:47:05.205Z,71.96
2019-03-03T12:49:35.143Z,71.95
2019-03-03T12:52:00.785Z,71.85
2019-03-03T12:54:27.590Z,72.01
2019-03-03T12:56:48.179Z,71.75
2019-03-03T12:59:14.075Z,72.02
2019-03-03T13:01:56.907Z,72.03
2019-03-03T13:04:29.183Z,72.02
2019-03-03T13:07:02.439Z,72.17
2019-03-03T13:09:35.828Z,72.23
2019-03-03T13:12:03.027Z,72.07
2019-03-03T13:14:32.872Z,72.00
2019-03-03T13:17:11.788Z,72.23
2019-03-03T13:19:38.593Z,72.20
2019-03-03T13:22:05.725Z,72.33
2019-03-03T13:24:30.834Z,72.34
2019-03-03T13:26:46.303Z,72.66
2019-03-03T13:29:25.379Z,72.47
2019-03-03T13:31:44.145Z,72.53
2019-03-03T13:34:11.087Z,72.54
2019-03-03T13:36:34.724Z,72.47
2019-03-03T13:39:08.493Z,72.51
2019-03-03T13:41:38.647Z,72.56
2019-03-03T13:43:47.587Z,72.57
2019-03-03T13:45:56.238Z,72.58
2019-03-03T13:48:04.846Z,72.50
2019-03-03T13:50:16.248Z,72.67
2019-03-03T13:52:24.373Z,72.65
2019-03-03T13:54:33.141Z,72.63
2019-03-03T13:56:41.492Z,72.66
2019-03-03T13:58:49.878Z,72.70
2019-03-03T14:00:58.464Z,72.56
2019-03-03T14:03:07.022Z,72.42
2019-03-03T14:05:16.910Z,72.40
2019-03-03T14:07:24.994Z,72.65
2019-03-03T14:09:33.296Z,72.61
2019-03-03T14:11:41.508Z,72.69
2019-03-03T14:13:49.879Z,72.62
2019-03-03T14:15:58.003Z,72.57
2019-03-03T14:18:06.087Z,72.58
2019-03-03T14:20:20.707Z,72.53
2019-03-03T14:22:28.816Z,72.54
2019-03-03T14:24:36.860Z,72.53
2019-03-03T14:26:44.739Z,72.50
2019-03-03T14:28:52.694Z,72.24
2019-03-03T14:31:00.640Z,72.21
2019-03-03T14:33:08.676Z,72.14
2019-03-03T14:35:17.408Z,72.04
2019-03-03T14:37:25.147Z,72.12
2019-03-03T14:39:32.957Z,72.20
2019-03-03T14:41:41.204Z,72.23
2019-03-03T14:43:49.182Z,72.04
2019-03-03T14:45:58.040Z,71.89
2019-03-03T14:48:06.173Z,72.10
2019-03-03T14:50:16.289Z,72.03
2019-03-03T14:52:23.984Z,72.15
2019-03-03T14:54:31.903Z,72.50
2019-03-03T14:56:39.741Z,72.40
2019-03-03T14:58:47.513Z,72.52
2019-03-03T15:00:55.849Z,72.70
2019-03-03T15:03:06.181Z,72.67
2019-03-03T15:05:14.523Z,72.74
2019-03-03T15:07:22.561Z,72.87
2019-03-03T15:09:30.522Z,72.82
2019-03-03T15:11:38.362Z,73.11
2019-03-03T15:13:46.123Z,72.50
2019-03-03T15:15:54.210Z,72.45
2019-03-03T15:18:02.017Z,72.69
2019-03-03T15:20:10.287Z,72.46
2019-03-03T15:22:18.066Z,72.22
2019-03-03T15:24:25.977Z,72.14
2019-03-03T15:26:34.059Z,72.00
2019-03-03T15:28:42.287Z,71.69
2019-03-03T15:30:50.312Z,71.61
2019-03-03T15:32:58.273Z,71.58
2019-03-03T15:35:06.354Z,71.41
2019-03-03T15:37:17.877Z,71.49
2019-03-03T15:39:26.199Z,71.28
2019-03-03T15:41:34.000Z,71.24
2019-03-03T15:43:42.122Z,71.09
2019-03-03T15:45:49.777Z,71.03
2019-03-03T15:47:57.865Z,70.84
2019-03-03T15:50:06.114Z,70.98
2019-03-03T15:52:14.136Z,70.73
2019-03-03T15:54:22.070Z,70.51
2019-03-03T15:56:29.870Z,70.71
2019-03-03T15:58:38.040Z,70.48
2019-03-03T16:00:46.130Z,70.06
2019-03-03T16:02:54.298Z,70.01
2019-03-03T16:05:02.354Z,69.71
2019-03-03T16:07:10.186Z,69.73
2019-03-03T16:09:19.306Z,69.65
2019-03-03T16:11:27.244Z,69.26
2019-03-03T16:13:35.399Z,69.59
2019-03-03T16:15:43.471Z,69.25
2019-03-03T16:17:51.038Z,69.08
2019-03-03T16:19:58.805Z,69.22
2019-03-03T16:22:06.830Z,69.14
2019-03-03T16:24:15.629Z,68.99
2019-03-03T16:26:25.182Z,69.13
2019-03-03T16:28:33.324Z,68.93
2019-03-03T16:30:41.941Z,69.00
2019-03-03T16:32:49.970Z,69.27
2019-03-03T16:34:58.012Z,69.19
2019-03-03T16:37:05.792Z,69.46
2019-03-03T16:39:13.961Z,69.32
2019-03-03T16:41:21.888Z,69.54
2019-03-03T16:43:29.885Z,69.03
2019-03-03T16:45:37.894Z,68.83
2019-03-03T16:47:45.876Z,68.82
2019-03-03T16:49:54.127Z,69.12
2019-03-03T16:52:01.988Z,69.31
2019-03-03T16:54:10.215Z,69.38
2019-03-03T16:56:18.162Z,69.58
2019-03-03T16:58:26.560Z,69.51
2019-03-03T17:00:34.582Z,69.45
2019-03-03T17:02:42.274Z,69.54
2019-03-03T17:04:50.296Z,69.54
2019-03-03T17:06:57.962Z,69.47
2019-03-03T17:09:06.858Z,69.26
2019-03-03T17:11:15.999Z,69.35
2019-03-03T17:13:23.793Z,69.47
2019-03-03T17:15:32.148Z,69.56
2019-03-03T17:17:40.126Z,69.10
2019-03-03T17:19:48.271Z,69.29
2019-03-03T17:21:56.124Z,69.05
2019-03-03T17:24:03.983Z,69.13
2019-03-03T17:26:12.197Z,69.36
2019-03-03T17:28:20.276Z,69.10
2019-03-03T17:30:28.439Z,69.05
2019-03-03T17:32:36.494Z,68.91
2019-03-03T17:34:44.315Z,68.75
2019-03-03T17:36:52.545Z,68.89
2019-03-03T17:39:00.211Z,68.66
2019-03-03T17:41:08.051Z,68.45
2019-03-03T17:43:15.976Z,68.55
2019-03-03T17:45:24.795Z,68.92
2019-03-03T17:47:33.387Z,68.79
2019-03-03T17:49:41.600Z,69.04
2019-03-03T17:51:49.715Z,69.14
2019-03-03T17:53:57.999Z,69.25
2019-03-03T17:56:06.189Z,70.02
2019-03-03T17:58:14.470Z,70.73
2019-03-03T18:00:25.589Z,71.18
2019-03-03T18:02:34.089Z,71.51
2019-03-03T18:04:41.906Z,72.05
2019-03-03T18:06:50.484Z,72.54
2019-03-03T18:08:58.508Z,73.09
2019-03-03T18:11:06.780Z,73.21
2019-03-03T18:13:15.216Z,74.05
2019-03-03T18:15:24.270Z,74.51
2019-03-03T18:17:32.221Z,75.00
2019-03-03T18:19:40.327Z,75.51
2019-03-03T18:21:48.768Z,76.02
2019-03-03T18:23:57.231Z,77.29
2019-03-03T18:26:05.316Z,77.15
2019-03-03T18:28:13.890Z,77.08
2019-03-03T18:30:24.341Z,77.91
2019-03-03T18:32:32.715Z,78.23
2019-03-03T18:34:42.762Z,78.78
2019-03-03T18:36:52.067Z,78.75
2019-03-03T18:39:00.214Z,78.94
2019-03-03T18:41:08.645Z,78.66
2019-03-03T18:43:17.908Z,78.55
2019-03-03T18:45:27.474Z,78.45
2019-03-03T18:47:36.253Z,78.88
2019-03-03T18:49:45.308Z,79.35
2019-03-03T18:51:53.932Z,79.12
2019-03-03T18:54:02.404Z,79.68
2019-03-03T18:56:11.125Z,79.55
2019-03-03T18:58:19.102Z,80.32
2019-03-03T19:00:30.190Z,80.02
2019-03-03T19:02:39.991Z,80.25
2019-03-03T19:04:49.031Z,80.53
2019-03-03T19:06:59.404Z,80.68
2019-03-03T19:09:11.805Z,80.59
2019-03-03T19:11:20.182Z,80.15
2019-03-03T19:13:28.835Z,81.07
2019-03-03T19:15:39.423Z,81.24
2019-03-03T19:17:47.786Z,80.93
2019-03-03T19:19:55.382Z,81.32
2019-03-03T19:22:03.788Z,81.62
2019-03-03T19:24:12.725Z,81.78
2019-03-03T19:26:21.425Z,81.21
2019-03-03T19:28:30.215Z,81.66
2019-03-03T19:30:39.510Z,82.04
2019-03-03T19:32:50.330Z,81.91
2019-03-03T19:35:01.301Z,81.92
2019-03-03T19:37:11.907Z,81.97
2019-03-03T19:39:22.737Z,82.48
2019-03-03T19:41:32.693Z,81.68
2019-03-03T19:43:42.628Z,82.24
2019-03-03T19:45:50.995Z,82.34
2019-03-03T19:47:59.145Z,82.58
2019-03-03T19:50:08.484Z,82.50
2019-03-03T19:52:16.619Z,82.26
2019-03-03T19:54:24.350Z,82.64
2019-03-03T19:56:32.780Z,82.62
2019-03-03T19:58:40.645Z,82.47
2019-03-03T20:00:49.109Z,82.40
2019-03-03T20:02:57.361Z,82.40
2019-03-03T20:05:05.285Z,82.98
2019-03-03T20:07:13.122Z,82.74
2019-03-03T20:09:21.058Z,82.74
2019-03-03T20:11:28.952Z,82.72
2019-03-03T20:13:36.905Z,82.77
2019-03-03T20:15:44.647Z,82.84
2019-03-03T20:17:52.519Z,82.99
2019-03-03T20:20:00.314Z,82.99
2019-03-03T20:22:08.185Z,83.06
2019-03-03T20:24:16.022Z,83.48
2019-03-03T20:26:24.461Z,83.21
2019-03-03T20:28:32.532Z,83.41
2019-03-03T20:30:42.451Z,83.10
2019-03-03T20:32:51.001Z,83.00
2019-03-03T20:34:58.825Z,83.12
2019-03-03T20:37:07.173Z,83.33
2019-03-03T20:39:16.773Z,83.48
2019-03-03T20:41:25.296Z,83.21
2019-03-03T20:43:33.006Z,83.33
2019-03-03T20:45:40.910Z,82.85
2019-03-03T20:47:49.008Z,83.48
2019-03-03T20:49:57.080Z,83.33
2019-03-03T20:52:06.704Z,83.60
2019-03-03T20:54:14.653Z,83.53
2019-03-03T20:56:22.608Z,83.57
2019-03-03T20:58:30.806Z,83.44
2019-03-03T21:00:39.334Z,83.58
2019-03-03T21:02:47.263Z,83.59
2019-03-03T21:04:55.090Z,83.71
2019-03-03T21:07:03.239Z,83.25
2019-03-03T21:09:11.943Z,83.13
2019-03-03T21:11:19.865Z,83.49
2019-03-03T21:13:27.785Z,83.50
2019-03-03T21:15:35.728Z,83.52
2019-03-03T21:17:43.683Z,83.70
2019-03-03T21:19:51.833Z,83.59
2019-03-03T21:21:59.639Z,83.06
2019-03-03T21:24:07.372Z,83.84
2019-03-03T21:26:15.320Z,83.45
2019-03-03T21:28:23.216Z,83.68
2019-03-03T21:30:31.106Z,83.40
2019-03-03T21:32:39.356Z,83.84
2019-03-03T21:34:47.139Z,82.99
2019-03-03T21:36:55.112Z,83.45
2019-03-03T21:39:03.818Z,83.56
2019-03-03T21:41:12.116Z,83.63
2019-03-03T21:43:21.062Z,83.98
2019-03-03T21:45:29.425Z,83.86
2019-03-03T21:47:37.182Z,84.06
2019-03-03T21:49:45.106Z,84.41
2019-03-03T21:51:52.927Z,83.91
2019-03-03T21:54:00.766Z,84.22
2019-03-03T21:56:08.779Z,84.29
2019-03-03T21:58:16.698Z,84.41
2019-03-03T22:00:31.004Z,84.24
2019-03-03T22:02:38.862Z,83.95
2019-03-03T22:04:46.743Z,84.20
2019-03-03T22:06:54.579Z,84.43
2019-03-03T22:09:02.771Z,84.11
2019-03-03T22:11:10.685Z,83.84
2019-03-03T22:13:18.503Z,84.16
2019-03-03T22:15:26.402Z,84.25
2019-03-03T22:17:34.230Z,84.60
2019-03-03T22:19:42.495Z,84.46
2019-03-03T22:21:50.916Z,84.18
2019-03-03T22:23:58.717Z,84.39
2019-03-03T22:26:07.194Z,84.07
2019-03-03T22:28:14.962Z,84.37
2019-03-03T22:30:23.110Z,84.53
2019-03-03T22:32:30.896Z,84.30
2019-03-03T22:34:38.901Z,84.37
2019-03-03T22:36:47.209Z,84.40
2019-03-03T22:38:55.192Z,84.22
2019-03-03T22:41:02.967Z,84.58
2019-03-03T22:43:11.325Z,84.44
2019-03-03T22:45:19.851Z,84.22
2019-03-03T22:47:28.468Z,84.26
2019-03-03T22:49:36.239Z,84.31
2019-03-03T22:51:44.135Z,84.41
2019-03-03T22:53:51.891Z,84.51
2019-03-03T22:55:59.772Z,84.42
2019-03-03T22:58:07.539Z,84.56
2019-03-03T23:00:47.874Z,84.46
2019-03-03T23:02:56.234Z,84.42
2019-03-03T23:05:31.366Z,84.37
2019-03-03T23:08:14.029Z,84.46
2019-03-03T23:11:03.871Z,84.63
2019-03-03T23:13:56.949Z,84.63
2019-03-03T23:17:23.792Z,84.69
2019-03-03T23:20:29.395Z,84.40
2019-03-03T23:23:34.105Z,84.12
2019-03-03T23:25:55.145Z,84.53
2019-03-03T23:28:03.036Z,84.38
2019-03-03T23:30:10.833Z,84.50
2019-03-03T23:32:18.610Z,84.53
2019-03-03T23:34:26.818Z,84.51
2019-03-03T23:36:34.659Z,84.22
2019-03-03T23:38:42.420Z,84.24
2019-03-03T23:40:50.245Z,84.14
2019-03-03T23:42:57.949Z,84.29
2019-03-03T23:45:06.524Z,84.54
2019-03-03T23:47:14.180Z,84.34
2019-03-03T23:49:21.915Z,84.20
2019-03-03T23:51:29.611Z,84.23
2019-03-03T23:53:37.215Z,84.21
2019-03-03T23:55:44.904Z,84.43
2019-03-03T23:57:52.608Z,84.63
